createdAt,value
2022-12-25T00:00:52.825Z,1004.5
2022-12-25T00:02:09.124Z,1004.5
2022-12-25T00:03:25.415Z,1004.5
2022-12-25T00:04:41.696Z,1004.5
2022-12-25T00:05:57.992Z,1004.5
2022-12-25T00:07:14.297Z,1004.6
2022-12-25T00:08:30.597Z,1004.5
2022-12-25T00:09:46.875Z,1004.5
2022-12-25T00:11:03.172Z,1004.4
2022-12-25T00:12:19.482Z,1004.4
2022-12-25T00:13:35.770Z,1004.4
2022-12-25T00:14:52.057Z,1004.4
2022-12-25T00:16:07.367Z,1004.5
2022-12-25T00:17:23.671Z,1004.5
2022-12-25T00:18:39.964Z,1004.6
2022-12-25T00:19:56.256Z,1004.6
2022-12-25T00:21:12.541Z,1004.6
2022-12-25T00:22:28.833Z,1004.6
2022-12-25T00:23:45.139Z,1004.6
2022-12-25T00:25:00.455Z,1004.6
2022-12-25T00:26:15.765Z,1004.6
2022-12-25T00:27:31.071Z,1004.6
2022-12-25T00:28:46.391Z,1004.5
2022-12-25T00:30:02.676Z,1004.4
2022-12-25T00:31:18.969Z,1004.4
2022-12-25T00:32:35.276Z,1004.4
2022-12-25T00:33:51.574Z,1004.4
2022-12-25T00:35:07.860Z,1004.4
2022-12-25T00:36:24.164Z,1004.4
2022-12-25T00:37:40.442Z,1004.4
2022-12-25T00:38:56.746Z,1004.3
2022-12-25T00:40:13.053Z,1004.3
2022-12-25T00:41:29.337Z,1004.3
2022-12-25T00:42:45.630Z,1004.3
2022-12-25T00:44:01.924Z,1004.3
2022-12-25T00:45:17.243Z,1004.3
2022-12-25T00:46:33.533Z,1004.3
2022-12-25T00:47:49.841Z,1004.3
2022-12-25T00:49:06.112Z,1004.3
2022-12-25T00:50:22.419Z,1004.4
2022-12-25T00:51:38.712Z,1004.4
2022-12-25T00:52:55.005Z,1004.4
2022-12-25T00:54:10.318Z,1004.4
2022-12-25T00:55:25.619Z,1004.4
2022-12-25T00:56:41.932Z,1004.4
2022-12-25T00:57:58.203Z,1004.4
2022-12-25T00:59:14.515Z,1004.4
2022-12-25T01:00:29.829Z,1004.4
2022-12-25T01:03:01.433Z,1004.4
2022-12-25T01:04:17.723Z,1004.5
2022-12-25T01:05:34.013Z,1004.3
2022-12-25T01:06:50.312Z,1004.4
2022-12-25T01:08:06.603Z,1004.3
2022-12-25T01:09:22.900Z,1004.3
2022-12-25T01:10:39.195Z,1004.4
2022-12-25T01:11:55.494Z,1004.5
2022-12-25T01:13:11.777Z,1004.4
2022-12-25T01:14:28.069Z,1004.5
2022-12-25T01:15:44.369Z,1004.5
2022-12-25T01:17:00.674Z,1004.5
2022-12-25T01:18:15.971Z,1004.5
2022-12-25T01:19:32.272Z,1004.6
2022-12-25T01:20:48.574Z,1004.6
2022-12-25T01:22:04.864Z,1004.6
2022-12-25T01:23:21.150Z,1004.6
2022-12-25T01:24:37.453Z,1004.6
2022-12-25T01:25:53.735Z,1004.6
2022-12-25T01:27:10.041Z,1004.7
2022-12-25T01:28:25.347Z,1004.7
2022-12-25T01:29:40.662Z,1004.7
2022-12-25T01:30:55.987Z,1004.7
2022-12-25T01:32:11.284Z,1004.8
2022-12-25T01:33:27.574Z,1004.7
2022-12-25T01:34:43.873Z,1004.8
2022-12-25T01:36:00.167Z,1004.8
2022-12-25T01:37:16.486Z,1004.8
2022-12-25T01:38:32.775Z,1004.7
2022-12-25T01:39:49.049Z,1004.8
2022-12-25T01:41:05.360Z,1004.8
2022-12-25T01:42:21.647Z,1004.8
2022-12-25T01:43:37.937Z,1004.7
2022-12-25T01:44:54.239Z,1004.8
2022-12-25T01:46:10.538Z,1004.8
2022-12-25T01:47:26.833Z,1004.8
2022-12-25T01:48:42.145Z,1004.8
2022-12-25T01:49:58.430Z,1004.8
2022-12-25T01:51:14.726Z,1004.8
2022-12-25T01:52:31.018Z,1004.8
2022-12-25T01:53:46.336Z,1004.9
2022-12-25T01:55:02.642Z,1004.9
2022-12-25T01:56:18.916Z,1004.9
2022-12-25T01:57:34.230Z,1005
2022-12-25T01:58:49.541Z,1005
2022-12-25T02:00:05.839Z,1005
2022-12-25T02:01:22.128Z,1005
2022-12-25T02:02:37.469Z,1005
2022-12-25T02:03:52.779Z,1005
2022-12-25T02:05:09.066Z,1005
2022-12-25T02:06:25.349Z,1004.9
2022-12-25T02:07:41.656Z,1005
2022-12-25T02:08:57.939Z,1004.9
2022-12-25T02:10:14.231Z,1004.9
2022-12-25T02:11:30.530Z,1004.9
2022-12-25T02:12:46.816Z,1005
2022-12-25T02:14:03.123Z,1005
2022-12-25T02:15:19.418Z,1004.9
2022-12-25T02:16:35.720Z,1004.9
2022-12-25T02:17:51.999Z,1004.9
2022-12-25T02:19:08.295Z,1004.9
2022-12-25T02:20:23.613Z,1004.9
2022-12-25T02:21:39.895Z,1005
2022-12-25T02:22:56.216Z,1005
2022-12-25T02:24:12.492Z,1005
2022-12-25T02:25:28.784Z,1005
2022-12-25T02:26:45.073Z,1005
2022-12-25T02:28:01.379Z,1004.9
2022-12-25T02:29:16.695Z,1004.9
2022-12-25T02:30:32.014Z,1004.9
2022-12-25T02:31:47.306Z,1004.9
2022-12-25T02:33:02.644Z,1004.9
2022-12-25T02:34:18.930Z,1004.9
2022-12-25T02:35:35.207Z,1004.9
2022-12-25T02:36:51.512Z,1004.9
2022-12-25T02:38:07.805Z,1004.9
2022-12-25T02:39:24.091Z,1004.9
2022-12-25T02:40:40.394Z,1004.9
2022-12-25T02:41:56.687Z,1004.8
2022-12-25T02:43:12.974Z,1005
2022-12-25T02:44:29.294Z,1004.9
2022-12-25T02:45:45.564Z,1004.9
2022-12-25T02:47:01.877Z,1004.9
2022-12-25T02:48:18.162Z,1004.9
2022-12-25T02:49:33.473Z,1004.9
2022-12-25T02:50:49.757Z,1004.9
2022-12-25T02:52:06.067Z,1004.9
2022-12-25T02:53:22.344Z,1004.9
2022-12-25T02:54:38.646Z,1004.9
2022-12-25T02:55:54.945Z,1004.8
2022-12-25T02:57:11.247Z,1004.7
2022-12-25T02:58:26.560Z,1004.7
2022-12-25T02:59:41.857Z,1004.7
2022-12-25T03:00:58.155Z,1004.7
2022-12-25T03:02:13.464Z,1004.7
2022-12-25T03:03:28.787Z,1004.8
2022-12-25T03:04:45.083Z,1004.8
2022-12-25T03:06:01.374Z,1004.9
2022-12-25T03:07:17.667Z,1004.8
2022-12-25T03:08:33.955Z,1004.8
2022-12-25T03:09:50.250Z,1004.9
2022-12-25T03:11:06.541Z,1004.9
2022-12-25T03:13:39.138Z,1004.9
2022-12-25T03:14:55.437Z,1004.9
2022-12-25T03:16:11.733Z,1004.9
2022-12-25T03:17:28.018Z,1004.9
2022-12-25T03:18:44.312Z,1004.9
2022-12-25T03:19:59.630Z,1004.9
2022-12-25T03:21:15.922Z,1004.9
2022-12-25T03:22:32.224Z,1004.9
2022-12-25T03:23:48.518Z,1004.8
2022-12-25T03:25:04.798Z,1004.9
2022-12-25T03:26:21.093Z,1004.9
2022-12-25T03:27:37.385Z,1004.9
2022-12-25T03:28:53.687Z,1004.9
2022-12-25T03:30:10.131Z,1004.9
2022-12-25T03:31:25.423Z,1005
2022-12-25T03:32:41.732Z,1005
2022-12-25T03:33:58.013Z,1005.1
2022-12-25T03:35:14.313Z,1005.1
2022-12-25T03:36:30.611Z,1005.1
2022-12-25T03:37:46.901Z,1005
2022-12-25T03:39:03.189Z,1005
2022-12-25T03:40:19.488Z,1005.1
2022-12-25T03:41:35.787Z,1005
2022-12-25T03:42:52.074Z,1005
2022-12-25T03:44:08.366Z,1005
2022-12-25T03:45:24.675Z,1005.1
2022-12-25T03:46:40.965Z,1005.1
2022-12-25T03:47:56.273Z,1005.2
2022-12-25T03:49:12.567Z,1005.1
2022-12-25T03:50:28.855Z,1005.1
2022-12-25T03:51:45.149Z,1005.2
2022-12-25T03:53:01.452Z,1005.1
2022-12-25T03:54:17.756Z,1005.2
2022-12-25T03:55:34.042Z,1005.1
2022-12-25T03:56:49.350Z,1005.1
2022-12-25T03:58:04.665Z,1005.1
2022-12-25T03:59:19.981Z,1005.2
2022-12-25T04:00:35.286Z,1005.2
2022-12-25T04:01:51.596Z,1005.2
2022-12-25T04:03:07.896Z,1005.2
2022-12-25T04:04:24.175Z,1005.1
2022-12-25T04:05:40.482Z,1005.2
2022-12-25T04:06:56.760Z,1005.2
2022-12-25T04:08:13.066Z,1005.1
2022-12-25T04:09:29.356Z,1005.1
2022-12-25T04:10:45.647Z,1005.1
2022-12-25T04:12:01.944Z,1005.1
2022-12-25T04:13:18.234Z,1005.1
2022-12-25T04:14:34.534Z,1005.1
2022-12-25T04:15:50.822Z,1005.1
2022-12-25T04:17:06.131Z,1005.1
2022-12-25T04:18:22.424Z,1005.1
2022-12-25T04:19:38.719Z,1005.1
2022-12-25T04:20:55.033Z,1005.1
2022-12-25T04:22:11.325Z,1005.1
2022-12-25T04:23:27.613Z,1005.1
2022-12-25T04:24:43.906Z,1005.1
2022-12-25T04:25:59.217Z,1005.1
2022-12-25T04:27:14.531Z,1005.1
2022-12-25T04:28:30.826Z,1005.2
2022-12-25T04:29:47.113Z,1005.1
2022-12-25T04:31:03.421Z,1005.1
2022-12-25T04:32:19.713Z,1005.1
2022-12-25T04:33:35.996Z,1005.1
2022-12-25T04:34:52.287Z,1005.1
2022-12-25T04:36:08.601Z,1005.2
2022-12-25T04:37:24.886Z,1005.2
2022-12-25T04:38:41.183Z,1005.2
2022-12-25T04:39:57.483Z,1005.2
2022-12-25T04:41:13.768Z,1005.2
2022-12-25T04:42:30.071Z,1005.3
2022-12-25T04:43:45.367Z,1005.3
2022-12-25T04:45:01.663Z,1005.3
2022-12-25T04:46:17.973Z,1005.3
2022-12-25T04:47:34.249Z,1005.4
2022-12-25T04:48:50.545Z,1005.3
2022-12-25T04:50:06.844Z,1005.3
2022-12-25T04:51:23.140Z,1005.3
2022-12-25T04:52:38.450Z,1005.4
2022-12-25T04:53:53.770Z,1005.4
2022-12-25T04:55:09.083Z,1005.4
2022-12-25T04:56:24.387Z,1005.4
2022-12-25T04:57:39.707Z,1005.4
2022-12-25T04:58:55.020Z,1005.4
2022-12-25T05:00:10.333Z,1005.3
2022-12-25T05:01:25.645Z,1005.3
2022-12-25T05:02:41.937Z,1005.3
2022-12-25T05:03:58.233Z,1005.2
2022-12-25T05:05:14.530Z,1005.3
2022-12-25T05:06:30.816Z,1005.3
2022-12-25T05:07:47.122Z,1005.2
2022-12-25T05:09:03.403Z,1005.2
2022-12-25T05:10:19.699Z,1005.1
2022-12-25T05:11:35.997Z,1005.2
2022-12-25T05:12:52.300Z,1005.2
2022-12-25T05:14:08.603Z,1005.2
2022-12-25T05:15:24.879Z,1005.2
2022-12-25T05:16:41.187Z,1005.1
2022-12-25T05:17:56.486Z,1005.1
2022-12-25T05:19:12.792Z,1005.1
2022-12-25T05:20:29.088Z,1005.1
2022-12-25T05:21:45.373Z,1005.1
2022-12-25T05:23:01.674Z,1005.1
2022-12-25T05:24:17.958Z,1005.2
2022-12-25T05:25:34.256Z,1005.1
2022-12-25T05:26:49.568Z,1005.1
2022-12-25T05:28:04.879Z,1005.1
2022-12-25T05:29:21.188Z,1005.1
2022-12-25T05:30:37.476Z,1005
2022-12-25T05:31:53.759Z,1005
2022-12-25T05:33:10.063Z,1005
2022-12-25T05:34:26.346Z,1005
2022-12-25T05:35:42.653Z,1005
2022-12-25T05:36:58.942Z,1005
2022-12-25T05:38:15.232Z,1004.9
2022-12-25T05:39:31.531Z,1004.9
2022-12-25T05:40:47.834Z,1004.8
2022-12-25T05:42:04.117Z,1004.9
2022-12-25T05:43:20.407Z,1004.8
2022-12-25T05:44:35.731Z,1004.8
2022-12-25T05:45:52.027Z,1004.8
2022-12-25T05:47:08.322Z,1004.8
2022-12-25T05:48:24.602Z,1004.9
2022-12-25T05:49:40.898Z,1004.7
2022-12-25T05:50:57.203Z,1004.8
2022-12-25T05:52:13.490Z,1004.8
2022-12-25T05:53:28.801Z,1004.9
2022-12-25T05:54:44.112Z,1004.9
2022-12-25T05:55:59.448Z,1004.9
2022-12-25T05:57:14.741Z,1004.9
2022-12-25T05:58:31.031Z,1004.9
2022-12-25T05:59:47.332Z,1004.8
2022-12-25T06:01:03.628Z,1004.8
2022-12-25T06:02:19.929Z,1004.7
2022-12-25T06:03:36.221Z,1004.7
2022-12-25T06:04:52.504Z,1004.8
2022-12-25T06:06:08.810Z,1004.7
2022-12-25T06:07:25.104Z,1004.7
2022-12-25T06:08:40.421Z,1004.7
2022-12-25T06:09:56.710Z,1004.7
2022-12-25T06:11:13.000Z,1004.7
2022-12-25T06:12:29.294Z,1004.8
2022-12-25T06:13:45.594Z,1004.7
2022-12-25T06:15:01.883Z,1004.6
2022-12-25T06:16:18.178Z,1004.7
2022-12-25T06:17:34.477Z,1004.8
2022-12-25T06:18:50.773Z,1004.7
2022-12-25T06:20:07.077Z,1004.7
2022-12-25T06:21:23.368Z,1004.7
2022-12-25T06:22:38.685Z,1004.7
2022-12-25T06:23:53.982Z,1004.7
2022-12-25T06:25:10.228Z,1004.7
2022-12-25T06:26:26.528Z,1004.8
2022-12-25T06:27:42.812Z,1004.7
2022-12-25T06:28:59.063Z,1004.7
2022-12-25T06:30:15.309Z,1004.7
2022-12-25T06:31:31.598Z,1004.7
2022-12-25T06:32:47.892Z,1004.7
2022-12-25T06:34:04.201Z,1004.7
2022-12-25T06:35:20.497Z,1004.7
2022-12-25T06:36:36.778Z,1004.7
2022-12-25T06:37:53.041Z,1004.7
2022-12-25T06:39:09.269Z,1004.7
2022-12-25T06:40:24.526Z,1004.7
2022-12-25T06:41:40.777Z,1004.7
2022-12-25T06:42:57.020Z,1004.7
2022-12-25T06:44:13.256Z,1004.7
2022-12-25T06:45:29.493Z,1004.9
2022-12-25T06:46:45.732Z,1004.9
2022-12-25T06:48:01.967Z,1004.9
2022-12-25T06:49:17.238Z,1004.9
2022-12-25T06:50:32.487Z,1004.9
2022-12-25T06:51:47.762Z,1005
2022-12-25T06:53:03.022Z,1005
2022-12-25T06:54:18.272Z,1005
2022-12-25T06:55:33.531Z,1005
2022-12-25T06:56:49.764Z,1005
2022-12-25T06:58:06.012Z,1005
2022-12-25T06:59:22.245Z,1005
2022-12-25T07:00:38.499Z,1005
2022-12-25T07:01:54.733Z,1004.9
2022-12-25T07:03:10.967Z,1005
2022-12-25T07:04:27.214Z,1004.9
2022-12-25T07:05:43.447Z,1004.9
2022-12-25T07:06:59.686Z,1004.9
2022-12-25T07:08:15.937Z,1004.9
2022-12-25T07:09:32.170Z,1004.9
2022-12-25T07:10:48.411Z,1004.9
2022-12-25T07:12:03.664Z,1004.9
2022-12-25T07:13:19.913Z,1004.9
2022-12-25T07:14:36.146Z,1004.9
2022-12-25T07:15:52.387Z,1004.9
2022-12-25T07:17:08.631Z,1004.9
2022-12-25T07:18:24.864Z,1004.9
2022-12-25T07:19:41.119Z,1005
2022-12-25T07:20:56.372Z,1005.1
2022-12-25T07:22:11.635Z,1005.2
2022-12-25T07:23:26.906Z,1005.1
2022-12-25T07:24:42.142Z,1005.2
2022-12-25T07:25:58.388Z,1005.1
2022-12-25T07:27:14.626Z,1005.2
2022-12-25T07:28:30.883Z,1005.2
2022-12-25T07:29:47.114Z,1005.2
2022-12-25T07:31:03.356Z,1005.2
2022-12-25T07:32:19.585Z,1005.2
2022-12-25T07:33:35.828Z,1005.2
2022-12-25T07:34:52.079Z,1005.2
2022-12-25T07:36:08.308Z,1005.2
2022-12-25T07:37:24.550Z,1005.2
2022-12-25T07:38:40.792Z,1005.1
2022-12-25T07:39:57.029Z,1005.1
2022-12-25T07:41:12.300Z,1005.1
2022-12-25T07:42:28.538Z,1005.1
2022-12-25T07:43:44.766Z,1005
2022-12-25T07:45:01.021Z,1005
2022-12-25T07:46:17.249Z,1005
2022-12-25T07:47:33.501Z,1005
2022-12-25T07:48:49.747Z,1005
2022-12-25T07:50:04.992Z,1005
2022-12-25T07:51:20.258Z,1005
2022-12-25T07:52:35.509Z,1005.1
2022-12-25T07:53:50.776Z,1005
2022-12-25T07:55:07.009Z,1005
2022-12-25T07:56:23.247Z,1005
2022-12-25T07:57:39.493Z,1005
2022-12-25T07:58:55.740Z,1004.9
2022-12-25T08:00:11.966Z,1004.9
2022-12-25T08:01:28.208Z,1004.9
2022-12-25T08:02:44.449Z,1004.9
2022-12-25T08:04:00.703Z,1004.9
2022-12-25T08:05:16.928Z,1004.8
2022-12-25T08:06:33.168Z,1004.8
2022-12-25T08:07:49.413Z,1004.8
2022-12-25T08:10:21.888Z,1005
2022-12-25T08:11:37.148Z,1004.9
2022-12-25T08:12:53.389Z,1004.9
2022-12-25T08:15:25.881Z,1004.9
2022-12-25T08:16:41.138Z,1004.9
2022-12-25T08:17:56.390Z,1004.8
2022-12-25T08:19:12.627Z,1004.8
2022-12-25T08:20:28.878Z,1004.7
2022-12-25T08:21:45.113Z,1004.7
2022-12-25T08:23:01.353Z,1004.7
2022-12-25T08:24:17.606Z,1004.7
2022-12-25T08:25:33.824Z,1004.7
2022-12-25T08:26:50.068Z,1004.7
2022-12-25T08:28:06.316Z,1004.7
2022-12-25T08:29:22.560Z,1004.7
2022-12-25T08:30:38.938Z,1004.7
2022-12-25T08:31:54.194Z,1004.6
2022-12-25T08:33:10.434Z,1004.6
2022-12-25T08:34:26.672Z,1004.6
2022-12-25T08:35:42.910Z,1004.6
2022-12-25T08:36:59.150Z,1004.6
2022-12-25T08:38:15.391Z,1004.5
2022-12-25T08:39:31.630Z,1004.6
2022-12-25T08:40:47.875Z,1004.5
2022-12-25T08:42:04.114Z,1004.6
2022-12-25T08:43:20.358Z,1004.6
2022-12-25T08:44:36.598Z,1004.6
2022-12-25T08:45:52.829Z,1004.5
2022-12-25T08:47:09.086Z,1004.5
2022-12-25T08:48:24.324Z,1004.5
2022-12-25T08:49:40.577Z,1004.5
2022-12-25T08:50:56.814Z,1004.5
2022-12-25T08:52:13.047Z,1004.5
2022-12-25T08:53:29.301Z,1004.5
2022-12-25T08:54:45.532Z,1004.4
2022-12-25T08:56:01.777Z,1004.4
2022-12-25T08:57:17.034Z,1004.5
2022-12-25T08:58:32.285Z,1004.5
2022-12-25T08:59:48.535Z,1004.5
2022-12-25T09:01:04.771Z,1004.6
2022-12-25T09:02:21.021Z,1004.6
2022-12-25T09:03:37.263Z,1004.5
2022-12-25T09:04:53.503Z,1004.5
2022-12-25T09:06:09.733Z,1004.4
2022-12-25T09:07:25.966Z,1004.5
2022-12-25T09:08:42.209Z,1004.5
2022-12-25T09:09:58.449Z,1004.4
2022-12-25T09:11:14.701Z,1004.4
2022-12-25T09:12:30.926Z,1004.3
2022-12-25T09:13:47.166Z,1004.5
2022-12-25T09:15:03.543Z,1004.5
2022-12-25T09:16:19.774Z,1004.5
2022-12-25T09:17:36.026Z,1004.5
2022-12-25T09:18:52.244Z,1004.3
2022-12-25T09:20:08.502Z,1004.3
2022-12-25T09:21:24.723Z,1004.3
2022-12-25T09:22:40.966Z,1004.4
2022-12-25T09:23:56.227Z,1004.3
2022-12-25T09:25:11.479Z,1004.3
2022-12-25T09:26:27.722Z,1004.3
2022-12-25T09:27:43.957Z,1004.2
2022-12-25T09:29:00.202Z,1004.3
2022-12-25T09:30:16.443Z,1004.2
2022-12-25T09:31:32.689Z,1004.1
2022-12-25T09:32:48.919Z,1004.2
2022-12-25T09:34:05.161Z,1004.1
2022-12-25T09:35:21.403Z,1004.1
2022-12-25T09:36:37.639Z,1004
2022-12-25T09:37:53.894Z,1004
2022-12-25T09:39:10.119Z,1004.1
2022-12-25T09:40:26.371Z,1004.1
2022-12-25T09:41:41.621Z,1003.9
2022-12-25T09:42:57.864Z,1004
2022-12-25T09:44:14.090Z,1003.8
2022-12-25T09:45:30.331Z,1003.9
2022-12-25T09:46:46.579Z,1004
2022-12-25T09:48:02.817Z,1004
2022-12-25T09:49:19.058Z,1003.9
2022-12-25T09:50:34.318Z,1003.8
2022-12-25T09:51:49.582Z,1003.9
2022-12-25T09:53:04.827Z,1004
2022-12-25T09:54:20.093Z,1004
2022-12-25T09:55:36.326Z,1004
2022-12-25T09:56:52.566Z,1004
2022-12-25T09:58:08.820Z,1004
2022-12-25T09:59:25.046Z,1003.9
2022-12-25T10:00:41.000Z,1003.8
2022-12-25T10:01:57.529Z,1004
2022-12-25T10:03:13.779Z,1003.9
2022-12-25T10:04:29.998Z,1003.9
2022-12-25T10:05:46.244Z,1003.9
2022-12-25T10:07:02.488Z,1003.9
2022-12-25T10:08:18.729Z,1003.8
2022-12-25T10:09:34.964Z,1003.8
2022-12-25T10:10:50.227Z,1003.9
2022-12-25T10:12:06.466Z,1003.9
2022-12-25T10:13:22.709Z,1003.8
2022-12-25T10:14:38.937Z,1003.9
2022-12-25T10:15:55.174Z,1003.9
2022-12-25T10:17:11.434Z,1003.7
2022-12-25T10:18:27.665Z,1003.6
2022-12-25T10:19:42.000Z,1003.6
2022-12-25T10:20:58.186Z,1003.5
2022-12-25T10:22:13.449Z,1003.5
2022-12-25T10:23:28.712Z,1003.4
2022-12-25T10:24:44.939Z,1003.5
2022-12-25T10:26:01.187Z,1003.6
2022-12-25T10:27:17.413Z,1003.5
2022-12-25T10:28:33.665Z,1003.5
2022-12-25T10:29:49.905Z,1003.4
2022-12-25T10:31:06.160Z,1003.3
2022-12-25T10:32:22.383Z,1003.3
2022-12-25T10:33:38.625Z,1003.3
2022-12-25T10:34:54.865Z,1003.4
2022-12-25T10:36:11.101Z,1003.3
2022-12-25T10:37:27.351Z,1003.3
2022-12-25T10:38:43.577Z,1003.3
2022-12-25T10:39:58.851Z,1003.4
2022-12-25T10:41:15.072Z,1003.5
2022-12-25T10:42:31.316Z,1003.2
2022-12-25T10:43:47.563Z,1003.2
2022-12-25T10:45:03.794Z,1003.2
2022-12-25T10:46:20.041Z,1003.1
2022-12-25T10:47:36.271Z,1003.1
2022-12-25T10:48:51.541Z,1003.1
2022-12-25T10:50:06.792Z,1003
2022-12-25T10:51:22.044Z,1003.1
2022-12-25T10:52:37.307Z,1003.2
2022-12-25T10:53:52.577Z,1003.2
2022-12-25T10:55:07.827Z,1003.2
2022-12-25T10:56:23.080Z,1003.2
2022-12-25T10:57:38.352Z,1003.1
2022-12-25T10:58:54.584Z,1003.1
2022-12-25T11:00:10.831Z,1003.1
2022-12-25T11:01:27.070Z,1003.1
2022-12-25T11:02:43.294Z,1003.1
2022-12-25T11:03:59.551Z,1003.1
2022-12-25T11:05:15.783Z,1003.1
2022-12-25T11:06:32.027Z,1003.1
2022-12-25T11:07:48.268Z,1003
2022-12-25T11:09:04.507Z,1003
2022-12-25T11:10:20.740Z,1003
2022-12-25T11:11:36.974Z,1002.8
2022-12-25T11:12:53.213Z,1002.8
2022-12-25T11:14:08.476Z,1002.8
2022-12-25T11:15:24.719Z,1002.8
2022-12-25T11:16:40.964Z,1002.8
2022-12-25T11:17:57.202Z,1002.8
2022-12-25T11:19:13.428Z,1002.8
2022-12-25T11:20:29.668Z,1002.8
2022-12-25T11:21:45.934Z,1002.8
2022-12-25T11:23:01.187Z,1002.8
2022-12-25T11:24:16.436Z,1002.7
2022-12-25T11:25:32.684Z,1002.7
2022-12-25T11:26:47.937Z,1002.8
2022-12-25T11:28:03.189Z,1002.7
2022-12-25T11:29:19.435Z,1002.7
2022-12-25T11:30:35.667Z,1002.6
2022-12-25T11:31:51.913Z,1002.5
2022-12-25T11:33:08.155Z,1002.4
2022-12-25T11:34:24.394Z,1002.3
2022-12-25T11:35:40.638Z,1002.3
2022-12-25T11:36:56.871Z,1002.3
2022-12-25T11:38:13.112Z,1002.2
2022-12-25T11:39:29.356Z,1002.1
2022-12-25T11:40:45.591Z,1002.1
2022-12-25T11:42:01.834Z,1002
2022-12-25T11:43:18.071Z,1002.1
2022-12-25T11:44:33.321Z,1002
2022-12-25T11:45:49.567Z,1002
2022-12-25T11:47:05.818Z,1002
2022-12-25T11:48:22.037Z,1002
2022-12-25T11:49:38.290Z,1002.1
2022-12-25T11:50:54.519Z,1002
2022-12-25T11:52:10.775Z,1002
2022-12-25T11:53:26.027Z,1001.9
2022-12-25T11:54:41.284Z,1001.9
2022-12-25T11:55:56.555Z,1001.9
2022-12-25T11:57:11.792Z,1002
2022-12-25T11:58:28.031Z,1002
2022-12-25T11:59:44.282Z,1002.1
2022-12-25T12:01:00.522Z,1002.1
2022-12-25T12:02:16.778Z,1002.2
2022-12-25T12:03:33.003Z,1002.1
2022-12-25T12:04:49.235Z,1002.2
2022-12-25T12:06:05.478Z,1002.2
2022-12-25T12:07:21.732Z,1002.2
2022-12-25T12:08:37.959Z,1002.2
2022-12-25T12:09:54.191Z,1002.2
2022-12-25T12:11:10.446Z,1002.1
2022-12-25T12:12:26.673Z,1002.1
2022-12-25T12:13:41.927Z,1002.1
2022-12-25T12:14:58.175Z,1002
2022-12-25T12:16:14.410Z,1001.9
2022-12-25T12:17:30.657Z,1001.8
2022-12-25T12:18:46.890Z,1001.7
2022-12-25T12:20:03.141Z,1001.7
2022-12-25T12:21:19.366Z,1001.6
2022-12-25T12:22:34.640Z,1001.5
2022-12-25T12:23:49.886Z,1001.4
2022-12-25T12:25:06.135Z,1001.4
2022-12-25T12:26:22.365Z,1001.4
2022-12-25T12:27:38.603Z,1001.4
2022-12-25T12:28:54.845Z,1001.5
2022-12-25T12:30:11.100Z,1001.6
2022-12-25T12:31:27.332Z,1001.7
2022-12-25T12:32:43.568Z,1001.7
2022-12-25T12:33:59.810Z,1001.7
2022-12-25T12:35:16.050Z,1001.7
2022-12-25T12:36:32.304Z,1001.7
2022-12-25T12:37:48.543Z,1001.7
2022-12-25T12:39:04.768Z,1001.6
2022-12-25T12:40:20.033Z,1001.7
2022-12-25T12:41:36.259Z,1001.8
2022-12-25T12:42:52.501Z,1001.9
2022-12-25T12:44:08.747Z,1001.8
2022-12-25T12:45:25.001Z,1001.9
2022-12-25T12:46:41.227Z,1001.8
2022-12-25T12:47:57.478Z,1001.8
2022-12-25T12:49:12.735Z,1001.8
2022-12-25T12:50:27.977Z,1001.8
2022-12-25T12:51:43.259Z,1001.8
2022-12-25T12:52:59.495Z,1001.8
2022-12-25T12:54:14.744Z,1001.8
2022-12-25T12:55:30.979Z,1001.8
2022-12-25T12:56:47.230Z,1001.8
2022-12-25T12:58:03.464Z,1001.8
2022-12-25T12:59:19.700Z,1001.8
2022-12-25T13:00:35.941Z,1001.9
2022-12-25T13:01:52.188Z,1001.8
2022-12-25T13:03:08.414Z,1001.8
2022-12-25T13:04:24.678Z,1001.8
2022-12-25T13:05:40.899Z,1001.7
2022-12-25T13:06:57.148Z,1001.7
2022-12-25T13:08:13.387Z,1001.7
2022-12-25T13:09:29.634Z,1001.7
2022-12-25T13:10:44.887Z,1001.8
2022-12-25T13:12:01.121Z,1001.8
2022-12-25T13:13:17.363Z,1001.8
2022-12-25T13:14:33.599Z,1001.9
2022-12-25T13:15:49.837Z,1001.9
2022-12-25T13:17:06.081Z,1001.8
2022-12-25T13:18:21.346Z,1001.8
2022-12-25T13:19:36.591Z,1001.8
2022-12-25T13:22:09.075Z,1001.8
2022-12-25T13:23:25.329Z,1001.7
2022-12-25T13:24:41.549Z,1001.7
2022-12-25T13:25:57.818Z,1001.7
2022-12-25T13:27:14.038Z,1001.6
2022-12-25T13:28:30.285Z,1001.6
2022-12-25T13:29:46.513Z,1001.6
2022-12-25T13:31:02.757Z,1001.5
2022-12-25T13:32:18.998Z,1001.4
2022-12-25T13:33:35.243Z,1001.5
2022-12-25T13:34:51.482Z,1001.5
2022-12-25T13:36:06.734Z,1001.5
2022-12-25T13:37:22.974Z,1001.6
2022-12-25T13:38:39.206Z,1001.5
2022-12-25T13:39:55.457Z,1001.5
2022-12-25T13:41:11.709Z,1001.6
2022-12-25T13:42:27.926Z,1001.6
2022-12-25T13:43:44.177Z,1001.5
2022-12-25T13:45:00.426Z,1001.5
2022-12-25T13:46:15.687Z,1001.5
2022-12-25T13:47:30.925Z,1001.5
2022-12-25T13:48:46.186Z,1001.5
2022-12-25T13:50:01.452Z,1001.5
2022-12-25T13:51:16.710Z,1001.5
2022-12-25T13:52:31.980Z,1001.5
2022-12-25T13:53:48.212Z,1001.4
2022-12-25T13:55:04.450Z,1001.4
2022-12-25T13:56:20.687Z,1001.4
2022-12-25T13:57:36.939Z,1001.4
2022-12-25T13:58:53.168Z,1001.4
2022-12-25T14:00:09.419Z,1001.4
2022-12-25T14:01:25.662Z,1001.3
2022-12-25T14:02:41.891Z,1001.2
2022-12-25T14:03:58.129Z,1001.3
2022-12-25T14:05:14.377Z,1001.3
2022-12-25T14:06:30.616Z,1001.2
2022-12-25T14:07:46.856Z,1001.2
2022-12-25T14:09:02.106Z,1001.2
2022-12-25T14:10:18.345Z,1001.2
2022-12-25T14:11:34.595Z,1001.2
2022-12-25T14:12:50.845Z,1001.2
2022-12-25T14:14:07.068Z,1001.2
2022-12-25T14:15:23.314Z,1001.3
2022-12-25T14:16:39.557Z,1001.3
2022-12-25T14:17:55.792Z,1001.3
2022-12-25T14:19:11.044Z,1001.3
2022-12-25T14:20:26.302Z,1001.4
2022-12-25T14:21:42.549Z,1001.3
2022-12-25T14:22:58.793Z,1001.3
2022-12-25T14:24:15.044Z,1001.2
2022-12-25T14:25:31.281Z,1001.2
2022-12-25T14:26:47.497Z,1001.2
2022-12-25T14:28:03.745Z,1001.3
2022-12-25T14:29:19.980Z,1001.3
2022-12-25T14:30:36.246Z,1001.5
2022-12-25T14:31:52.469Z,1001.4
2022-12-25T14:33:08.704Z,1001.4
2022-12-25T14:34:24.946Z,1001.3
2022-12-25T14:35:41.207Z,1001.4
2022-12-25T14:36:56.448Z,1001.4
2022-12-25T14:38:11.713Z,1001.4
2022-12-25T14:39:27.952Z,1001.4
2022-12-25T14:40:44.177Z,1001.4
2022-12-25T14:42:00.423Z,1001.4
2022-12-25T14:43:16.661Z,1001.3
2022-12-25T14:44:32.910Z,1001.2
2022-12-25T14:45:48.168Z,1001.2
2022-12-25T14:47:03.417Z,1001.2
2022-12-25T14:48:18.704Z,1001.3
2022-12-25T14:49:33.938Z,1001.2
2022-12-25T14:50:50.182Z,1001.1
2022-12-25T14:52:06.435Z,1001.2
2022-12-25T14:53:22.654Z,1001.1
2022-12-25T14:54:38.920Z,1001.2
2022-12-25T14:55:55.149Z,1001.1
2022-12-25T14:57:11.383Z,1001.1
2022-12-25T14:58:27.614Z,1001.1
2022-12-25T14:59:43.860Z,1001.1
2022-12-25T15:01:00.092Z,1001
2022-12-25T15:02:16.340Z,1001
2022-12-25T15:03:32.588Z,1001
2022-12-25T15:04:48.830Z,1001
2022-12-25T15:06:04.073Z,1000.9
2022-12-25T15:07:20.320Z,1000.9
2022-12-25T15:08:36.549Z,1000.8
2022-12-25T15:09:52.799Z,1000.8
2022-12-25T15:11:09.031Z,1000.8
2022-12-25T15:12:25.281Z,1000.9
2022-12-25T15:13:41.522Z,1000.8
2022-12-25T15:14:57.896Z,1000.8
2022-12-25T15:16:13.179Z,1000.7
2022-12-25T15:17:28.429Z,1000.7
2022-12-25T15:18:43.688Z,1000.6
2022-12-25T15:19:59.905Z,1000.6
2022-12-25T15:21:16.157Z,1000.6
2022-12-25T15:22:32.398Z,1000.6
2022-12-25T15:23:48.648Z,1000.6
2022-12-25T15:25:04.884Z,1000.7
2022-12-25T15:26:21.130Z,1000.6
2022-12-25T15:27:37.367Z,1000.7
2022-12-25T15:28:53.611Z,1000.6
2022-12-25T15:30:09.847Z,1000.6
2022-12-25T15:31:26.082Z,1000.6
2022-12-25T15:32:42.375Z,1000.6
2022-12-25T15:33:58.682Z,1000.6
2022-12-25T15:35:14.954Z,1000.7
2022-12-25T15:36:31.259Z,1000.6
2022-12-25T15:37:46.571Z,1000.5
2022-12-25T15:39:02.865Z,1000.4
2022-12-25T15:40:19.149Z,1000.5
2022-12-25T15:41:35.443Z,1000.5
2022-12-25T15:42:51.735Z,1000.5
2022-12-25T15:44:07.049Z,1000.5
2022-12-25T15:45:22.371Z,1000.5
2022-12-25T15:46:37.684Z,1000.5
2022-12-25T15:47:52.992Z,1000.5
2022-12-25T15:49:09.281Z,1000.4
2022-12-25T15:50:25.590Z,1000.4
2022-12-25T15:51:41.870Z,1000.4
2022-12-25T15:52:58.174Z,1000.4
2022-12-25T15:54:14.458Z,1000.4
2022-12-25T15:55:30.764Z,1000.4
2022-12-25T15:56:47.060Z,1000.5
2022-12-25T15:58:03.345Z,1000.4
2022-12-25T15:59:19.628Z,1000.4
2022-12-25T16:00:35.924Z,1000.3
2022-12-25T16:01:52.232Z,1000.3